sensor_id;sensor_type;location;lat;lon;timestamp;P1;P2;P0
70436;PMS5003;57877;39.750;-104.894;2023-07-31T00:01:24;0;0;
70436;PMS5003;57877;39.750;-104.894;2023-07-31T00:03:49;0;0;
70436;PMS5003;57877;39.750;-104.894;2023-07-31T00:06:14;0;0;
70436;PMS5003;57877;39.750;-104.894;2023-07-31T00:08:39;0;0;
70436;PMS5003;57877;39.750;-104.894;2023-07-31T00:11:04;0;0;
70436;PMS5003;57877;39.750;-104.894;2023-07-31T00:13:30;0;0;
70436;PMS5003;57877;39.750;-104.894;2023-07-31T00:15:55;5;5;
70436;PMS5003;57877;39.750;-104.894;2023-07-31T00:18:20;6;6;
70436;PMS5003;57877;39.750;-104.894;2023-07-31T00:20:45;4;4;
70436;PMS5003;57877;39.750;-104.894;2023-07-31T00:23:10;0;0;
70436;PMS5003;57877;39.750;-104.894;2023-07-31T00:25:35;3;2;
70436;PMS5003;57877;39.750;-104.894;2023-07-31T00:28:00;2;2;
70436;PMS5003;57877;39.750;-104.894;2023-07-31T00:30:25;2;2;
70436;PMS5003;57877;39.750;-104.894;2023-07-31T00:32:51;1;1;
70436;PMS5003;57877;39.750;-104.894;2023-07-31T00:35:16;0;0;
70436;PMS5003;57877;39.750;-104.894;2023-07-31T00:37:41;6;6;
70436;PMS5003;57877;39.750;-104.894;2023-07-31T00:40:06;1;1;
70436;PMS5003;57877;39.750;-104.894;2023-07-31T00:42:31;1;1;
70436;PMS5003;57877;39.750;-104.894;2023-07-31T00:44:56;2;2;
70436;PMS5003;57877;39.750;-104.894;2023-07-31T00:47:21;3;3;
70436;PMS5003;57877;39.750;-104.894;2023-07-31T00:49:46;2;2;
70436;PMS5003;57877;39.750;-104.894;2023-07-31T00:52:11;4;4;
70436;PMS5003;57877;39.750;-104.894;2023-07-31T00:54:37;2;2;
70436;PMS5003;57877;39.750;-104.894;2023-07-31T00:57:02;3;3;
70436;PMS5003;57877;39.750;-104.894;2023-07-31T00:59:27;3;2;
70436;PMS5003;57877;39.750;-104.894;2023-07-31T01:01:52;3;3;
70436;PMS5003;57877;39.750;-104.894;2023-07-31T01:04:17;2;2;
70436;PMS5003;57877;39.750;-104.894;2023-07-31T01:06:44;2;2;
70436;PMS5003;57877;39.750;-104.894;2023-07-31T01:09:08;3;3;
70436;PMS5003;57877;39.750;-104.894;2023-07-31T01:11:33;2;2;
70436;PMS5003;57877;39.750;-104.894;2023-07-31T01:13:57;4;4;
70436;PMS5003;57877;39.750;-104.894;2023-07-31T01:16:22;16;16;
70436;PMS5003;57877;39.750;-104.894;2023-07-31T01:18:48;5;5;
70436;PMS5003;57877;39.750;-104.894;2023-07-31T01:21:19;3;3;
70436;PMS5003;57877;39.750;-104.894;2023-07-31T01:23:46;1;1;
70436;PMS5003;57877;39.750;-104.894;2023-07-31T01:26:04;1;0;
70436;PMS5003;57877;39.750;-104.894;2023-07-31T01:28:29;0;0;
70436;PMS5003;57877;39.750;-104.894;2023-07-31T01:30:53;0;0;
70436;PMS5003;57877;39.750;-104.894;2023-07-31T01:33:18;1;0;
70436;PMS5003;57877;39.750;-104.894;2023-07-31T01:35:44;0;0;
70436;PMS5003;57877;39.750;-104.894;2023-07-31T01:38:08;1;0;
70436;PMS5003;57877;39.750;-104.894;2023-07-31T01:40:33;0;0;
70436;PMS5003;57877;39.750;-104.894;2023-07-31T01:42:58;0;0;
70436;PMS5003;57877;39.750;-104.894;2023-07-31T01:45:23;0;0;
70436;PMS5003;57877;39.750;-104.894;2023-07-31T01:47:48;1;1;
70436;PMS5003;57877;39.750;-104.894;2023-07-31T01:50:13;0;0;
70436;PMS5003;57877;39.750;-104.894;2023-07-31T01:52:38;0;0;
70436;PMS5003;57877;39.750;-104.894;2023-07-31T01:55:04;0;0;
70436;PMS5003;57877;39.750;-104.894;2023-07-31T01:57:28;0;0;
70436;PMS5003;57877;39.750;-104.894;2023-07-31T01:59:54;0;0;
70436;PMS5003;57877;39.750;-104.894;2023-07-31T02:02:18;0;0;
70436;PMS5003;57877;39.750;-104.894;2023-07-31T02:04:43;0;0;
70436;PMS5003;57877;39.750;-104.894;2023-07-31T02:07:09;0;0;
70436;PMS5003;57877;39.750;-104.894;2023-07-31T02:09:34;1;1;
70436;PMS5003;57877;39.750;-104.894;2023-07-31T02:11:59;3;2;
70436;PMS5003;57877;39.750;-104.894;2023-07-31T02:14:24;1;1;
70436;PMS5003;57877;39.750;-104.894;2023-07-31T02:16:49;1;1;
70436;PMS5003;57877;39.750;-104.894;2023-07-31T02:19:14;0;0;
70436;PMS5003;57877;39.750;-104.894;2023-07-31T02:21:39;0;0;
70436;PMS5003;57877;39.750;-104.894;2023-07-31T02:24:04;0;0;
70436;PMS5003;57877;39.750;-104.894;2023-07-31T02:26:29;1;0;
70436;PMS5003;57877;39.750;-104.894;2023-07-31T02:28:54;1;1;
70436;PMS5003;57877;39.750;-104.894;2023-07-31T02:31:19;0;0;
70436;PMS5003;57877;39.750;-104.894;2023-07-31T02:33:44;0;0;
70436;PMS5003;57877;39.750;-104.894;2023-07-31T02:36:09;0;0;
70436;PMS5003;57877;39.750;-104.894;2023-07-31T02:38:34;0;0;
70436;PMS5003;57877;39.750;-104.894;2023-07-31T02:40:59;0;0;
70436;PMS5003;57877;39.750;-104.894;2023-07-31T02:43:24;0;0;
70436;PMS5003;57877;39.750;-104.894;2023-07-31T02:45:51;0;0;
70436;PMS5003;57877;39.750;-104.894;2023-07-31T02:48:14;0;0;
70436;PMS5003;57877;39.750;-104.894;2023-07-31T02:50:39;1;1;
70436;PMS5003;57877;39.750;-104.894;2023-07-31T02:53:04;0;0;
70436;PMS5003;57877;39.750;-104.894;2023-07-31T02:55:30;0;0;
70436;PMS5003;57877;39.750;-104.894;2023-07-31T02:57:55;0;0;
70436;PMS5003;57877;39.750;-104.894;2023-07-31T03:00:20;2;2;
70436;PMS5003;57877;39.750;-104.894;2023-07-31T03:02:45;0;0;
70436;PMS5003;57877;39.750;-104.894;2023-07-31T03:05:10;0;0;
70436;PMS5003;57877;39.750;-104.894;2023-07-31T03:07:35;0;0;
70436;PMS5003;57877;39.750;-104.894;2023-07-31T03:10:00;1;1;
70436;PMS5003;57877;39.750;-104.894;2023-07-31T03:12:27;0;0;
70436;PMS5003;57877;39.750;-104.894;2023-07-31T03:14:52;1;0;
70436;PMS5003;57877;39.750;-104.894;2023-07-31T03:17:18;1;0;
70436;PMS5003;57877;39.750;-104.894;2023-07-31T03:19:43;0;0;
70436;PMS5003;57877;39.750;-104.894;2023-07-31T03:22:09;0;0;
70436;PMS5003;57877;39.750;-104.894;2023-07-31T03:24:34;3;3;
70436;PMS5003;57877;39.750;-104.894;2023-07-31T03:27:00;3;3;
70436;PMS5003;57877;39.750;-104.894;2023-07-31T03:29:26;2;2;
70436;PMS5003;57877;39.750;-104.894;2023-07-31T03:31:52;1;1;
70436;PMS5003;57877;39.750;-104.894;2023-07-31T03:34:17;2;2;
70436;PMS5003;57877;39.750;-104.894;2023-07-31T03:36:42;2;1;
70436;PMS5003;57877;39.750;-104.894;2023-07-31T03:39:07;2;2;
70436;PMS5003;57877;39.750;-104.894;2023-07-31T03:41:32;2;2;
70436;PMS5003;57877;39.750;-104.894;2023-07-31T03:43:57;2;2;
70436;PMS5003;57877;39.750;-104.894;2023-07-31T03:46:22;2;2;
70436;PMS5003;57877;39.750;-104.894;2023-07-31T03:48:47;1;1;
70436;PMS5003;57877;39.750;-104.894;2023-07-31T03:51:12;2;1;
70436;PMS5003;57877;39.750;-104.894;2023-07-31T03:53:38;1;1;
70436;PMS5003;57877;39.750;-104.894;2023-07-31T03:56:04;1;1;
70436;PMS5003;57877;39.750;-104.894;2023-07-31T03:58:29;2;1;
70436;PMS5003;57877;39.750;-104.894;2023-07-31T04:00:55;0;0;
70436;PMS5003;57877;39.750;-104.894;2023-07-31T04:03:21;1;1;
70436;PMS5003;57877;39.750;-104.894;2023-07-31T04:05:47;0;0;
70436;PMS5003;57877;39.750;-104.894;2023-07-31T04:08:13;2;1;
70436;PMS5003;57877;39.750;-104.894;2023-07-31T04:10:39;1;1;
70436;PMS5003;57877;39.750;-104.894;2023-07-31T04:13:05;0;0;
70436;PMS5003;57877;39.750;-104.894;2023-07-31T04:15:31;3;3;
70436;PMS5003;57877;39.750;-104.894;2023-07-31T04:17:57;3;3;
70436;PMS5003;57877;39.750;-104.894;2023-07-31T04:20:23;3;3;
70436;PMS5003;57877;39.750;-104.894;2023-07-31T04:22:49;3;3;
70436;PMS5003;57877;39.750;-104.894;2023-07-31T04:25:15;3;3;
70436;PMS5003;57877;39.750;-104.894;2023-07-31T04:27:41;3;3;
70436;PMS5003;57877;39.750;-104.894;2023-07-31T04:30:07;3;3;
70436;PMS5003;57877;39.750;-104.894;2023-07-31T04:32:33;4;4;
70436;PMS5003;57877;39.750;-104.894;2023-07-31T04:34:59;3;3;
70436;PMS5003;57877;39.750;-104.894;2023-07-31T04:37:25;4;4;
70436;PMS5003;57877;39.750;-104.894;2023-07-31T04:39:51;2;2;
70436;PMS5003;57877;39.750;-104.894;2023-07-31T04:42:17;3;3;
70436;PMS5003;57877;39.750;-104.894;2023-07-31T04:44:43;3;3;
70436;PMS5003;57877;39.750;-104.894;2023-07-31T04:47:09;2;2;
70436;PMS5003;57877;39.750;-104.894;2023-07-31T04:49:35;4;3;
70436;PMS5003;57877;39.750;-104.894;2023-07-31T04:52:01;2;2;
70436;PMS5003;57877;39.750;-104.894;2023-07-31T04:54:27;3;3;
70436;PMS5003;57877;39.750;-104.894;2023-07-31T04:56:53;1;1;
70436;PMS5003;57877;39.750;-104.894;2023-07-31T04:59:19;2;2;
70436;PMS5003;57877;39.750;-104.894;2023-07-31T05:01:45;2;2;
70436;PMS5003;57877;39.750;-104.894;2023-07-31T05:04:12;3;3;
70436;PMS5003;57877;39.750;-104.894;2023-07-31T05:06:37;3;3;
70436;PMS5003;57877;39.750;-104.894;2023-07-31T05:09:03;3;3;
70436;PMS5003;57877;39.750;-104.894;2023-07-31T05:11:29;1;1;
70436;PMS5003;57877;39.750;-104.894;2023-07-31T05:13:55;2;2;
70436;PMS5003;57877;39.750;-104.894;2023-07-31T05:16:21;4;4;
70436;PMS5003;57877;39.750;-104.894;2023-07-31T05:18:47;5;3;
70436;PMS5003;57877;39.750;-104.894;2023-07-31T05:21:13;3;3;
70436;PMS5003;57877;39.750;-104.894;2023-07-31T05:23:39;3;3;
70436;PMS5003;57877;39.750;-104.894;2023-07-31T05:26:05;3;3;
70436;PMS5003;57877;39.750;-104.894;2023-07-31T05:28:31;2;2;
70436;PMS5003;57877;39.750;-104.894;2023-07-31T05:30:58;3;3;
70436;PMS5003;57877;39.750;-104.894;2023-07-31T05:33:23;3;3;
70436;PMS5003;57877;39.750;-104.894;2023-07-31T05:35:49;3;3;
70436;PMS5003;57877;39.750;-104.894;2023-07-31T05:38:15;2;2;
70436;PMS5003;57877;39.750;-104.894;2023-07-31T05:40:42;2;2;
70436;PMS5003;57877;39.750;-104.894;2023-07-31T05:43:07;2;2;
70436;PMS5003;57877;39.750;-104.894;2023-07-31T05:45:33;2;2;
70436;PMS5003;57877;39.750;-104.894;2023-07-31T05:47:59;2;2;
70436;PMS5003;57877;39.750;-104.894;2023-07-31T05:50:25;2;2;
70436;PMS5003;57877;39.750;-104.894;2023-07-31T05:52:51;2;2;
70436;PMS5003;57877;39.750;-104.894;2023-07-31T05:55:17;4;4;
70436;PMS5003;57877;39.750;-104.894;2023-07-31T05:57:43;2;2;
70436;PMS5003;57877;39.750;-104.894;2023-07-31T06:00:09;3;2;
70436;PMS5003;57877;39.750;-104.894;2023-07-31T06:02:35;2;2;
70436;PMS5003;57877;39.750;-104.894;2023-07-31T06:05:01;2;2;
70436;PMS5003;57877;39.750;-104.894;2023-07-31T06:07:27;1;1;
70436;PMS5003;57877;39.750;-104.894;2023-07-31T06:09:53;0;0;
70436;PMS5003;57877;39.750;-104.894;2023-07-31T06:12:19;2;1;
70436;PMS5003;57877;39.750;-104.894;2023-07-31T06:14:45;1;1;
70436;PMS5003;57877;39.750;-104.894;2023-07-31T06:17:11;0;0;
70436;PMS5003;57877;39.750;-104.894;2023-07-31T06:19:37;1;1;
70436;PMS5003;57877;39.750;-104.894;2023-07-31T06:22:03;2;1;
70436;PMS5003;57877;39.750;-104.894;2023-07-31T06:24:29;0;0;
70436;PMS5003;57877;39.750;-104.894;2023-07-31T06:26:55;1;1;
70436;PMS5003;57877;39.750;-104.894;2023-07-31T06:29:21;2;2;
70436;PMS5003;57877;39.750;-104.894;2023-07-31T06:31:47;1;1;
70436;PMS5003;57877;39.750;-104.894;2023-07-31T06:34:13;0;0;
70436;PMS5003;57877;39.750;-104.894;2023-07-31T06:36:39;1;0;
70436;PMS5003;57877;39.750;-104.894;2023-07-31T06:39:04;1;1;
70436;PMS5003;57877;39.750;-104.894;2023-07-31T06:41:30;0;0;
70436;PMS5003;57877;39.750;-104.894;2023-07-31T06:43:57;2;1;
70436;PMS5003;57877;39.750;-104.894;2023-07-31T06:46:22;1;0;
70436;PMS5003;57877;39.750;-104.894;2023-07-31T06:48:48;1;0;
70436;PMS5003;57877;39.750;-104.894;2023-07-31T06:51:14;1;0;
70436;PMS5003;57877;39.750;-104.894;2023-07-31T06:53:40;1;1;
70436;PMS5003;57877;39.750;-104.894;2023-07-31T06:56:06;0;0;
70436;PMS5003;57877;39.750;-104.894;2023-07-31T06:58:32;2;1;
70436;PMS5003;57877;39.750;-104.894;2023-07-31T07:00:58;1;0;
70436;PMS5003;57877;39.750;-104.894;2023-07-31T07:03:24;0;0;
70436;PMS5003;57877;39.750;-104.894;2023-07-31T07:05:50;0;0;
70436;PMS5003;57877;39.750;-104.894;2023-07-31T07:08:16;0;0;
70436;PMS5003;57877;39.750;-104.894;2023-07-31T07:10:42;0;0;
70436;PMS5003;57877;39.750;-104.894;2023-07-31T07:13:08;1;0;
70436;PMS5003;57877;39.750;-104.894;2023-07-31T07:15:34;0;0;
70436;PMS5003;57877;39.750;-104.894;2023-07-31T07:18:00;0;0;
70436;PMS5003;57877;39.750;-104.894;2023-07-31T07:20:26;0;0;
70436;PMS5003;57877;39.750;-104.894;2023-07-31T07:22:52;0;0;
70436;PMS5003;57877;39.750;-104.894;2023-07-31T07:25:18;1;1;
70436;PMS5003;57877;39.750;-104.894;2023-07-31T07:27:44;1;0;
70436;PMS5003;57877;39.750;-104.894;2023-07-31T07:30:10;0;0;
70436;PMS5003;57877;39.750;-104.894;2023-07-31T07:32:36;0;0;
70436;PMS5003;57877;39.750;-104.894;2023-07-31T07:35:02;0;0;
70436;PMS5003;57877;39.750;-104.894;2023-07-31T07:37:28;0;0;
70436;PMS5003;57877;39.750;-104.894;2023-07-31T07:39:54;0;0;
70436;PMS5003;57877;39.750;-104.894;2023-07-31T07:42:20;0;0;
70436;PMS5003;57877;39.750;-104.894;2023-07-31T07:44:46;0;0;
70436;PMS5003;57877;39.750;-104.894;2023-07-31T07:47:12;0;0;
70436;PMS5003;57877;39.750;-104.894;2023-07-31T07:49:38;0;0;
70436;PMS5003;57877;39.750;-104.894;2023-07-31T07:52:04;0;0;
70436;PMS5003;57877;39.750;-104.894;2023-07-31T07:54:30;0;0;
70436;PMS5003;57877;39.750;-104.894;2023-07-31T07:56:56;1;1;
70436;PMS5003;57877;39.750;-104.894;2023-07-31T07:59:22;0;0;
70436;PMS5003;57877;39.750;-104.894;2023-07-31T08:01:48;0;0;
70436;PMS5003;57877;39.750;-104.894;2023-07-31T08:04:14;0;0;
70436;PMS5003;57877;39.750;-104.894;2023-07-31T08:06:40;0;0;
70436;PMS5003;57877;39.750;-104.894;2023-07-31T08:09:06;0;0;
70436;PMS5003;57877;39.750;-104.894;2023-07-31T08:11:32;1;0;
70436;PMS5003;57877;39.750;-104.894;2023-07-31T08:13:58;1;1;
70436;PMS5003;57877;39.750;-104.894;2023-07-31T08:16:24;0;0;
70436;PMS5003;57877;39.750;-104.894;2023-07-31T08:18:50;2;0;
70436;PMS5003;57877;39.750;-104.894;2023-07-31T08:21:16;0;0;
70436;PMS5003;57877;39.750;-104.894;2023-07-31T08:23:42;0;0;
70436;PMS5003;57877;39.750;-104.894;2023-07-31T08:26:08;0;0;
70436;PMS5003;57877;39.750;-104.894;2023-07-31T08:28:34;0;0;
70436;PMS5003;57877;39.750;-104.894;2023-07-31T08:31:00;0;0;
70436;PMS5003;57877;39.750;-104.894;2023-07-31T08:33:26;0;0;
70436;PMS5003;57877;39.750;-104.894;2023-07-31T08:35:52;0;0;
70436;PMS5003;57877;39.750;-104.894;2023-07-31T08:38:18;0;0;
70436;PMS5003;57877;39.750;-104.894;2023-07-31T08:40:44;0;0;
70436;PMS5003;57877;39.750;-104.894;2023-07-31T08:43:10;0;0;
70436;PMS5003;57877;39.750;-104.894;2023-07-31T08:45:36;0;0;
70436;PMS5003;57877;39.750;-104.894;2023-07-31T08:48:01;0;0;
70436;PMS5003;57877;39.750;-104.894;2023-07-31T08:50:26;0;0;
70436;PMS5003;57877;39.750;-104.894;2023-07-31T08:52:51;1;1;
70436;PMS5003;57877;39.750;-104.894;2023-07-31T08:55:16;0;0;
70436;PMS5003;57877;39.750;-104.894;2023-07-31T08:57:42;0;0;
70436;PMS5003;57877;39.750;-104.894;2023-07-31T09:00:07;0;0;
70436;PMS5003;57877;39.750;-104.894;2023-07-31T09:02:36;0;0;
70436;PMS5003;57877;39.750;-104.894;2023-07-31T09:04:57;0;0;
70436;PMS5003;57877;39.750;-104.894;2023-07-31T09:07:21;1;0;
70436;PMS5003;57877;39.750;-104.894;2023-07-31T09:09:46;0;0;
70436;PMS5003;57877;39.750;-104.894;2023-07-31T09:12:13;0;0;
70436;PMS5003;57877;39.750;-104.894;2023-07-31T09:14:38;0;0;
70436;PMS5003;57877;39.750;-104.894;2023-07-31T09:17:04;0;0;
70436;PMS5003;57877;39.750;-104.894;2023-07-31T09:19:29;0;0;
70436;PMS5003;57877;39.750;-104.894;2023-07-31T09:21:54;0;0;
70436;PMS5003;57877;39.750;-104.894;2023-07-31T09:26:44;0;0;
70436;PMS5003;57877;39.750;-104.894;2023-07-31T09:29:18;0;0;
70436;PMS5003;57877;39.750;-104.894;2023-07-31T09:31:38;0;0;
70436;PMS5003;57877;39.750;-104.894;2023-07-31T09:33:59;0;0;
70436;PMS5003;57877;39.750;-104.894;2023-07-31T09:36:24;0;0;
70436;PMS5003;57877;39.750;-104.894;2023-07-31T09:38:49;0;0;
70436;PMS5003;57877;39.750;-104.894;2023-07-31T09:41:14;0;0;
70436;PMS5003;57877;39.750;-104.894;2023-07-31T09:43:39;1;0;
70436;PMS5003;57877;39.750;-104.894;2023-07-31T09:46:04;0;0;
70436;PMS5003;57877;39.750;-104.894;2023-07-31T09:48:29;0;0;
70436;PMS5003;57877;39.750;-104.894;2023-07-31T09:50:54;0;0;
70436;PMS5003;57877;39.750;-104.894;2023-07-31T09:53:19;0;0;
70436;PMS5003;57877;39.750;-104.894;2023-07-31T09:55:44;2;2;
70436;PMS5003;57877;39.750;-104.894;2023-07-31T09:58:10;0;0;
70436;PMS5003;57877;39.750;-104.894;2023-07-31T10:00:35;1;1;
70436;PMS5003;57877;39.750;-104.894;2023-07-31T10:03:00;0;0;
70436;PMS5003;57877;39.750;-104.894;2023-07-31T10:05:24;0;0;
70436;PMS5003;57877;39.750;-104.894;2023-07-31T10:07:51;0;0;
70436;PMS5003;57877;39.750;-104.894;2023-07-31T10:10:14;0;0;
70436;PMS5003;57877;39.750;-104.894;2023-07-31T10:12:39;0;0;
70436;PMS5003;57877;39.750;-104.894;2023-07-31T10:15:05;0;0;
70436;PMS5003;57877;39.750;-104.894;2023-07-31T10:17:30;0;0;
70436;PMS5003;57877;39.750;-104.894;2023-07-31T10:19:54;0;0;
70436;PMS5003;57877;39.750;-104.894;2023-07-31T10:22:20;0;0;
70436;PMS5003;57877;39.750;-104.894;2023-07-31T10:24:45;1;0;
70436;PMS5003;57877;39.750;-104.894;2023-07-31T10:27:10;0;0;
70436;PMS5003;57877;39.750;-104.894;2023-07-31T10:29:35;0;0;
70436;PMS5003;57877;39.750;-104.894;2023-07-31T10:32:00;0;0;
70436;PMS5003;57877;39.750;-104.894;2023-07-31T10:34:25;0;0;
70436;PMS5003;57877;39.750;-104.894;2023-07-31T10:36:50;1;1;
70436;PMS5003;57877;39.750;-104.894;2023-07-31T10:41:40;0;0;
70436;PMS5003;57877;39.750;-104.894;2023-07-31T10:44:05;0;0;
70436;PMS5003;57877;39.750;-104.894;2023-07-31T10:46:30;1;1;
70436;PMS5003;57877;39.750;-104.894;2023-07-31T10:48:58;0;0;
70436;PMS5003;57877;39.750;-104.894;2023-07-31T10:51:20;0;0;
70436;PMS5003;57877;39.750;-104.894;2023-07-31T10:53:45;0;0;
70436;PMS5003;57877;39.750;-104.894;2023-07-31T10:56:10;1;1;
70436;PMS5003;57877;39.750;-104.894;2023-07-31T10:58:36;1;1;
70436;PMS5003;57877;39.750;-104.894;2023-07-31T11:01:01;1;1;
70436;PMS5003;57877;39.750;-104.894;2023-07-31T11:03:26;0;0;
70436;PMS5003;57877;39.750;-104.894;2023-07-31T11:05:51;0;0;
70436;PMS5003;57877;39.750;-104.894;2023-07-31T11:08:17;2;2;
70436;PMS5003;57877;39.750;-104.894;2023-07-31T11:10:41;1;1;
70436;PMS5003;57877;39.750;-104.894;2023-07-31T11:13:06;2;2;
70436;PMS5003;57877;39.750;-104.894;2023-07-31T11:15:31;1;1;
70436;PMS5003;57877;39.750;-104.894;2023-07-31T11:17:56;0;0;
70436;PMS5003;57877;39.750;-104.894;2023-07-31T11:20:21;2;2;
70436;PMS5003;57877;39.750;-104.894;2023-07-31T11:22:46;2;1;
70436;PMS5003;57877;39.750;-104.894;2023-07-31T11:25:11;0;0;
70436;PMS5003;57877;39.750;-104.894;2023-07-31T11:27:39;1;1;
70436;PMS5003;57877;39.750;-104.894;2023-07-31T11:30:01;1;1;
70436;PMS5003;57877;39.750;-104.894;2023-07-31T11:32:26;1;0;
70436;PMS5003;57877;39.750;-104.894;2023-07-31T11:34:51;1;1;
70436;PMS5003;57877;39.750;-104.894;2023-07-31T11:37:16;1;0;
70436;PMS5003;57877;39.750;-104.894;2023-07-31T11:39:41;1;1;
70436;PMS5003;57877;39.750;-104.894;2023-07-31T11:42:06;2;2;
70436;PMS5003;57877;39.750;-104.894;2023-07-31T11:46:56;2;2;
70436;PMS5003;57877;39.750;-104.894;2023-07-31T11:49:21;1;1;
70436;PMS5003;57877;39.750;-104.894;2023-07-31T11:51:46;2;2;
70436;PMS5003;57877;39.750;-104.894;2023-07-31T11:54:11;2;2;
70436;PMS5003;57877;39.750;-104.894;2023-07-31T11:56:36;3;2;
70436;PMS5003;57877;39.750;-104.894;2023-07-31T11:59:01;2;2;
70436;PMS5003;57877;39.750;-104.894;2023-07-31T12:01:26;2;2;
70436;PMS5003;57877;39.750;-104.894;2023-07-31T12:03:51;5;4;
70436;PMS5003;57877;39.750;-104.894;2023-07-31T12:06:16;3;3;
70436;PMS5003;57877;39.750;-104.894;2023-07-31T12:08:41;2;2;
70436;PMS5003;57877;39.750;-104.894;2023-07-31T12:11:08;4;4;
70436;PMS5003;57877;39.750;-104.894;2023-07-31T12:13:33;3;2;
70436;PMS5003;57877;39.750;-104.894;2023-07-31T12:15:59;4;4;
70436;PMS5003;57877;39.750;-104.894;2023-07-31T12:18:25;2;2;
70436;PMS5003;57877;39.750;-104.894;2023-07-31T12:20:54;2;2;
70436;PMS5003;57877;39.750;-104.894;2023-07-31T12:23:17;4;3;
70436;PMS5003;57877;39.750;-104.894;2023-07-31T12:25:43;4;4;
70436;PMS5003;57877;39.750;-104.894;2023-07-31T12:28:09;4;4;
70436;PMS5003;57877;39.750;-104.894;2023-07-31T12:30:35;2;2;
70436;PMS5003;57877;39.750;-104.894;2023-07-31T12:33:02;5;4;
70436;PMS5003;57877;39.750;-104.894;2023-07-31T12:35:30;5;5;
70436;PMS5003;57877;39.750;-104.894;2023-07-31T12:37:52;3;3;
70436;PMS5003;57877;39.750;-104.894;2023-07-31T12:40:18;5;4;
70436;PMS5003;57877;39.750;-104.894;2023-07-31T12:42:44;5;5;
70436;PMS5003;57877;39.750;-104.894;2023-07-31T12:45:10;5;5;
70436;PMS5003;57877;39.750;-104.894;2023-07-31T12:47:36;5;5;
70436;PMS5003;57877;39.750;-104.894;2023-07-31T12:50:02;6;6;
70436;PMS5003;57877;39.750;-104.894;2023-07-31T12:52:28;8;8;
70436;PMS5003;57877;39.750;-104.894;2023-07-31T12:54:54;6;6;
70436;PMS5003;57877;39.750;-104.894;2023-07-31T12:57:20;8;8;
70436;PMS5003;57877;39.750;-104.894;2023-07-31T12:59:46;15;14;
70436;PMS5003;57877;39.750;-104.894;2023-07-31T13:02:12;8;8;
70436;PMS5003;57877;39.750;-104.894;2023-07-31T13:04:38;7;7;
70436;PMS5003;57877;39.750;-104.894;2023-07-31T13:07:04;9;7;
70436;PMS5003;57877;39.750;-104.894;2023-07-31T13:09:30;8;8;
70436;PMS5003;57877;39.750;-104.894;2023-07-31T13:11:56;11;10;
70436;PMS5003;57877;39.750;-104.894;2023-07-31T13:14:22;10;9;
70436;PMS5003;57877;39.750;-104.894;2023-07-31T13:16:48;8;8;
70436;PMS5003;57877;39.750;-104.894;2023-07-31T13:19:13;9;8;
70436;PMS5003;57877;39.750;-104.894;2023-07-31T13:21:38;10;9;
70436;PMS5003;57877;39.750;-104.894;2023-07-31T13:24:04;11;10;
70436;PMS5003;57877;39.750;-104.894;2023-07-31T13:26:29;13;13;
70436;PMS5003;57877;39.750;-104.894;2023-07-31T13:28:55;12;12;
70436;PMS5003;57877;39.750;-104.894;2023-07-31T13:31:21;14;14;
70436;PMS5003;57877;39.750;-104.894;2023-07-31T13:33:47;16;15;
70436;PMS5003;57877;39.750;-104.894;2023-07-31T13:36:13;15;14;
70436;PMS5003;57877;39.750;-104.894;2023-07-31T13:38:39;18;16;
70436;PMS5003;57877;39.750;-104.894;2023-07-31T13:41:04;18;17;
70436;PMS5003;57877;39.750;-104.894;2023-07-31T13:43:30;18;16;
70436;PMS5003;57877;39.750;-104.894;2023-07-31T13:45:56;13;13;
70436;PMS5003;57877;39.750;-104.894;2023-07-31T13:48:22;16;15;
70436;PMS5003;57877;39.750;-104.894;2023-07-31T13:50:48;13;11;
70436;PMS5003;57877;39.750;-104.894;2023-07-31T13:53:14;13;12;
70436;PMS5003;57877;39.750;-104.894;2023-07-31T13:55:40;12;11;
70436;PMS5003;57877;39.750;-104.894;2023-07-31T13:58:06;15;14;
70436;PMS5003;57877;39.750;-104.894;2023-07-31T14:00:32;19;14;
70436;PMS5003;57877;39.750;-104.894;2023-07-31T14:02:58;13;12;
70436;PMS5003;57877;39.750;-104.894;2023-07-31T14:05:24;14;14;
70436;PMS5003;57877;39.750;-104.894;2023-07-31T14:07:49;13;12;
70436;PMS5003;57877;39.750;-104.894;2023-07-31T14:10:15;17;16;
70436;PMS5003;57877;39.750;-104.894;2023-07-31T14:12:41;17;17;
70436;PMS5003;57877;39.750;-104.894;2023-07-31T14:15:07;16;15;
70436;PMS5003;57877;39.750;-104.894;2023-07-31T14:17:33;19;18;
70436;PMS5003;57877;39.750;-104.894;2023-07-31T14:19:59;17;15;
70436;PMS5003;57877;39.750;-104.894;2023-07-31T14:22:28;17;17;
70436;PMS5003;57877;39.750;-104.894;2023-07-31T14:24:51;19;17;
70436;PMS5003;57877;39.750;-104.894;2023-07-31T14:27:17;18;18;
70436;PMS5003;57877;39.750;-104.894;2023-07-31T14:29:43;20;18;
70436;PMS5003;57877;39.750;-104.894;2023-07-31T14:32:08;20;19;
70436;PMS5003;57877;39.750;-104.894;2023-07-31T14:34:33;20;19;
70436;PMS5003;57877;39.750;-104.894;2023-07-31T14:37:00;18;17;
70436;PMS5003;57877;39.750;-104.894;2023-07-31T14:39:25;17;17;
70436;PMS5003;57877;39.750;-104.894;2023-07-31T14:41:50;17;17;
70436;PMS5003;57877;39.750;-104.894;2023-07-31T14:44:15;18;18;
70436;PMS5003;57877;39.750;-104.894;2023-07-31T14:46:40;16;15;
70436;PMS5003;57877;39.750;-104.894;2023-07-31T14:49:06;20;19;
70436;PMS5003;57877;39.750;-104.894;2023-07-31T14:51:31;18;18;
70436;PMS5003;57877;39.750;-104.894;2023-07-31T14:53:57;19;18;
70436;PMS5003;57877;39.750;-104.894;2023-07-31T14:56:22;18;18;
70436;PMS5003;57877;39.750;-104.894;2023-07-31T14:58:47;20;18;
70436;PMS5003;57877;39.750;-104.894;2023-07-31T15:01:12;20;18;
70436;PMS5003;57877;39.750;-104.894;2023-07-31T15:03:37;18;17;
70436;PMS5003;57877;39.750;-104.894;2023-07-31T15:06:02;13;13;
70436;PMS5003;57877;39.750;-104.894;2023-07-31T15:08:27;18;18;
70436;PMS5003;57877;39.750;-104.894;2023-07-31T15:10:54;17;16;
70436;PMS5003;57877;39.750;-104.894;2023-07-31T15:13:17;17;15;
70436;PMS5003;57877;39.750;-104.894;2023-07-31T15:15:42;18;16;
70436;PMS5003;57877;39.750;-104.894;2023-07-31T15:18:07;18;14;
70436;PMS5003;57877;39.750;-104.894;2023-07-31T15:20:32;13;13;
70436;PMS5003;57877;39.750;-104.894;2023-07-31T15:22:57;17;16;
70436;PMS5003;57877;39.750;-104.894;2023-07-31T15:25:23;20;20;
70436;PMS5003;57877;39.750;-104.894;2023-07-31T15:27:48;18;18;
70436;PMS5003;57877;39.750;-104.894;2023-07-31T15:30:13;18;18;
70436;PMS5003;57877;39.750;-104.894;2023-07-31T15:32:38;20;19;
70436;PMS5003;57877;39.750;-104.894;2023-07-31T15:35:03;21;20;
70436;PMS5003;57877;39.750;-104.894;2023-07-31T15:37:33;18;18;
70436;PMS5003;57877;39.750;-104.894;2023-07-31T15:39:53;19;19;
70436;PMS5003;57877;39.750;-104.894;2023-07-31T15:42:18;18;18;
70436;PMS5003;57877;39.750;-104.894;2023-07-31T15:44:43;17;16;
70436;PMS5003;57877;39.750;-104.894;2023-07-31T15:47:08;20;20;
70436;PMS5003;57877;39.750;-104.894;2023-07-31T15:49:34;20;19;
70436;PMS5003;57877;39.750;-104.894;2023-07-31T15:51:59;19;19;